Terminal Aerodrome Forecast
Issued by NWS

Current Version | Previous Version | Text Only | Print | Product List | Glossary On
Versions: 1 2 3 4 5 6 7 8 9 10 11 12 13 14 15
000
FTUS42 KGSP 250500 CCA
TAFAND
TAF COR
KAND 250545Z 2506/2606 11006KT P6SM OVC090
     FM250900 13005KT P6SM OVC016
     FM251300 20009KT P6SM VCTS OVC016CB
     FM251500 23014G24KT P6SM SCT016 OVC050 PROB30 2515/2521 4SM
      TSRA OVC016CB
     FM252100 26016G26KT P6SM FEW050 BKN250
     FM260100 27008KT P6SM SKC
     FM260500 29004KT P6SM SKC=

USA.gov is the U.S. government's official web portal to all federal, state and local government web resources and services.